Time;durP1;ratioP1;P1;durP2;ratioP2;P2;SDS_P1;SDS_P2;PMS_P1;PMS_P2;Temp;Humidity;BMP_temperature;BMP_pressure;BME280_temperature;BME280_humidity;BME280_pressure;Samples;Min_cycle;Max_cycle;Signal;HPM_P1;HPM_P2
2021/11/15 00:00:44;;;;;;;41.72;18.83;;;;;;;21.45;27.50;99180.47;5071284;28;20033;-87
2021/11/15 00:03:13;;;;;;;47.42;23.85;;;;;;;21.41;27.46;99187.22;5061591;28;20022;-87
2021/11/15 00:05:39;;;;;;;50.45;22.33;;;;;;;21.14;27.81;99193.03;5066511;28;20107;-88
2021/11/15 00:08:05;;;;;;;45.20;21.90;;;;;;;21.20;27.89;99191.50;5058891;28;20078;-88
2021/11/15 00:10:31;;;;;;;51.45;22.27;;;;;;;20.72;28.45;99191.84;5068033;28;20116;-88
2021/11/15 00:12:58;;;;;;;48.47;22.33;;;;;;;20.81;28.71;99197.91;5066265;28;20405;-88
2021/11/15 00:15:24;;;;;;;41.50;19.10;;;;;;;21.64;27.27;99191.38;5067323;28;20045;-88
2021/11/15 00:17:50;;;;;;;44.72;21.15;;;;;;;20.93;28.62;99206.00;5068982;28;20024;-88
2021/11/15 00:20:18;;;;;;;49.40;22.65;;;;;;;20.84;28.40;99203.50;5064452;28;20502;-87
2021/11/15 00:22:44;;;;;;;48.20;22.50;;;;;;;21.38;27.78;99202.00;5065259;28;20072;-87
2021/11/15 00:25:15;;;;;;;45.90;22.52;;;;;;;21.80;27.16;99197.44;5065205;28;20059;-88
2021/11/15 00:27:41;;;;;;;48.75;22.50;;;;;;;20.97;28.15;99199.25;5066769;28;20451;-88
2021/11/15 00:30:09;;;;;;;48.63;22.38;;;;;;;20.39;29.21;99207.47;5065167;28;20125;-88
2021/11/15 00:32:36;;;;;;;50.63;24.55;;;;;;;20.01;30.03;99196.63;5070806;28;20025;-87
2021/11/15 00:35:04;;;;;;;51.75;23.58;;;;;;;20.23;29.75;99203.31;5063536;28;20051;-87
2021/11/15 00:37:30;;;;;;;57.20;26.65;;;;;;;19.10;31.54;99212.81;5067445;28;20025;-87
2021/11/15 00:39:56;;;;;;;50.67;24.73;;;;;;;20.32;29.54;99209.38;5064096;28;20033;-87
2021/11/15 00:42:22;;;;;;;49.55;22.73;;;;;;;20.92;28.56;99209.97;5065134;28;20036;-87
2021/11/15 00:44:48;;;;;;;47.25;22.25;;;;;;;20.98;28.26;99208.44;5067583;28;20485;-87
2021/11/15 00:47:14;;;;;;;51.25;24.58;;;;;;;19.89;30.44;99208.03;5069804;28;20029;-88
2021/11/15 00:49:40;;;;;;;50.05;21.75;;;;;;;20.51;29.34;99211.97;5074274;28;20048;-87
2021/11/15 00:52:07;;;;;;;51.20;23.30;;;;;;;20.02;30.08;99211.38;5066897;28;20051;-88
2021/11/15 00:54:34;;;;;;;53.25;23.40;;;;;;;19.40;31.04;99218.47;5065219;28;20120;-87
2021/11/15 00:57:02;;;;;;;56.17;25.15;;;;;;;19.22;31.37;99219.00;5052504;28;20428;-87
2021/11/15 00:59:29;;;;;;;48.40;22.70;;;;;;;19.81;30.40;99215.47;5060786;28;20025;-87
2021/11/15 01:01:56;;;;;;;47.88;22.75;;;;;;;20.36;29.52;99207.41;5042173;28;20428;-88
2021/11/15 01:04:22;;;;;;;48.75;23.05;;;;;;;19.52;30.88;99215.47;5072085;28;20139;-87
2021/11/15 01:06:48;;;;;;;50.65;23.25;;;;;;;20.12;29.91;99214.28;5067556;28;20516;-87
2021/11/15 01:09:14;;;;;;;62.88;25.90;;;;;;;18.79;31.89;99216.66;5063112;28;20120;-87
2021/11/15 01:11:40;;;;;;;52.13;22.95;;;;;;;18.24;32.69;99218.00;5070760;28;20042;-87
2021/11/15 01:14:06;;;;;;;51.10;24.42;;;;;;;18.84;32.00;99223.88;5066736;28;20036;-87
2021/11/15 01:16:32;;;;;;;49.03;21.23;;;;;;;20.39;29.88;99215.84;5065460;28;20040;-87
2021/11/15 01:18:58;;;;;;;52.42;23.92;;;;;;;19.98;29.88;99214.91;5065338;28;20033;-88
2021/11/15 01:21:28;;;;;;;54.20;23.95;;;;;;;19.50;30.70;99220.63;5069308;28;20382;-88
2021/11/15 01:23:56;;;;;;;49.85;23.05;;;;;;;20.32;29.42;99218.56;5061663;28;20334;-87
2021/11/15 01:26:23;;;;;;;50.03;23.52;;;;;;;19.46;30.54;99228.94;5061975;28;20587;-87
2021/11/15 01:28:50;;;;;;;43.45;19.58;;;;;;;20.25;29.80;99229.63;5072265;28;20039;-87
2021/11/15 01:31:18;;;;;;;44.42;22.20;;;;;;;19.87;29.92;99227.91;5053513;28;20482;-87
2021/11/15 01:33:44;;;;;;;41.85;19.50;;;;;;;20.44;29.26;99223.84;5073597;28;20047;-88
2021/11/15 01:36:11;;;;;;;43.60;20.85;;;;;;;20.98;28.27;99230.78;5072055;28;20033;-88
2021/11/15 01:38:37;;;;;;;43.97;20.30;;;;;;;20.89;28.28;99231.06;5071939;28;20028;-88
2021/11/15 01:41:05;;;;;;;39.35;18.58;;;;;;;21.26;27.86;99245.78;5069598;28;20032;-88
2021/11/15 01:43:31;;;;;;;44.50;20.67;;;;;;;21.29;27.60;99247.00;5071129;28;20045;-88
2021/11/15 01:45:57;;;;;;;49.83;23.50;;;;;;;20.68;28.49;99239.25;5058806;28;20037;-88
2021/11/15 01:48:24;;;;;;;49.92;22.27;;;;;;;20.78;28.30;99246.13;5072372;28;20041;-87
2021/11/15 01:50:50;;;;;;;37.17;18.25;;;;;;;20.88;28.18;99242.63;5067542;28;20036;-87
2021/11/15 01:53:16;;;;;;;47.03;20.75;;;;;;;19.98;29.45;99245.56;5073898;28;20032;-87
2021/11/15 01:55:44;;;;;;;52.78;23.73;;;;;;;18.83;31.57;99258.47;5044679;28;20395;-87
2021/11/15 01:58:13;;;;;;;46.67;21.85;;;;;;;19.04;31.27;99253.28;5068418;28;20119;-87
2021/11/15 02:00:43;;;;;;;51.67;23.80;;;;;;;18.31;32.54;99250.69;5060855;28;20033;-87
2021/11/15 02:03:10;;;;;;;44.57;20.50;;;;;;;19.45;30.82;99254.34;5063876;28;20033;-87
2021/11/15 02:05:37;;;;;;;51.35;22.90;;;;;;;19.03;31.52;99254.44;5063161;28;20115;-87
2021/11/15 02:08:03;;;;;;;43.30;21.35;;;;;;;20.08;29.81;99248.88;5064963;28;20413;-87
2021/11/15 02:10:29;;;;;;;44.53;19.73;;;;;;;21.09;28.06;99240.88;5058408;28;20116;-87
2021/11/15 02:12:56;;;;;;;48.53;22.33;;;;;;;19.15;30.67;99238.34;5062276;28;20402;-87
2021/11/15 02:15:22;;;;;;;46.03;20.25;;;;;;;19.36;30.70;99249.06;5044700;28;20323;-87
2021/11/15 02:17:50;;;;;;;35.72;17.40;;;;;;;20.38;28.91;99241.31;5071284;28;20107;-87
2021/11/15 02:20:20;;;;;;;52.42;24.23;;;;;;;18.62;31.50;99250.53;5064997;28;20047;-88
2021/11/15 02:22:48;;;;;;;34.78;17.75;;;;;;;20.68;28.83;99244.81;5070436;28;20033;-88
2021/11/15 02:25:16;;;;;;;40.90;18.73;;;;;;;21.31;27.52;99251.03;5068931;28;20473;-88
2021/11/15 02:27:42;;;;;;;42.50;20.45;;;;;;;20.38;28.32;99250.50;5063005;28;20028;-87
2021/11/15 02:30:21;;;;;;;44.90;19.85;;;;;;;21.22;27.40;99246.97;5063621;28;20417;-87
2021/11/15 02:32:47;;;;;;;44.17;19.15;;;;;;;22.47;25.91;99250.91;5066566;28;20032;-87
2021/11/15 02:35:14;;;;;;;32.58;16.17;;;;;;;22.40;25.34;99256.50;5059378;28;20036;-87
2021/11/15 02:37:42;;;;;;;42.38;20.38;;;;;;;20.87;27.68;99247.41;5067493;28;20094;-87
2021/11/15 02:40:09;;;;;;;33.58;13.95;;;;;;;20.81;28.30;99246.16;5068404;28;20067;-87
2021/11/15 02:42:36;;;;;;;37.30;17.20;;;;;;;21.24;27.63;99262.13;5065324;28;20035;-88
2021/11/15 02:45:05;;;;;;;36.38;17.30;;;;;;;21.48;26.88;99254.34;5061360;28;20025;-87
2021/11/15 02:47:31;;;;;;;42.83;19.88;;;;;;;20.51;28.50;99257.41;5062565;28;20032;-87
2021/11/15 02:49:57;;;;;;;36.10;16.60;;;;;;;20.22;29.09;99265.81;5069827;28;20029;-87
2021/11/15 02:52:24;;;;;;;36.88;17.27;;;;;;;21.32;27.09;99257.41;5061843;28;20055;-87
2021/11/15 02:54:50;;;;;;;34.78;16.75;;;;;;;21.51;27.34;99250.78;5064596;28;20085;-88
2021/11/15 02:57:20;;;;;;;41.45;19.30;;;;;;;21.20;27.28;99252.94;5061510;28;20032;-87
2021/11/15 02:59:47;;;;;;;41.25;19.15;;;;;;;20.39;28.68;99259.66;5061753;28;20037;-87
2021/11/15 03:02:14;;;;;;;38.30;16.33;;;;;;;19.18;30.32;99270.22;5070985;28;20398;-87
2021/11/15 03:04:43;;;;;;;42.78;18.90;;;;;;;19.31;30.63;99269.66;5062834;28;20032;-87
2021/11/15 03:07:09;;;;;;;41.38;19.63;;;;;;;19.91;29.35;99272.53;5052174;28;20032;-86
2021/11/15 03:09:38;;;;;;;44.55;22.17;;;;;;;18.76;30.97;99284.19;5066080;28;20033;-87
2021/11/15 03:12:04;;;;;;;43.28;19.38;;;;;;;19.31;30.18;99282.75;5069407;28;20035;-87
2021/11/15 03:14:31;;;;;;;42.08;19.27;;;;;;;18.75;31.58;99285.34;5068172;28;20033;-87
2021/11/15 03:16:57;;;;;;;43.35;20.83;;;;;;;19.46;30.18;99276.28;5066497;28;20040;-87
2021/11/15 03:19:23;;;;;;;35.30;17.20;;;;;;;19.76;30.06;99281.91;5065958;28;20029;-87
2021/11/15 03:21:49;;;;;;;35.08;16.63;;;;;;;19.94;29.69;99285.72;5064878;28;20080;-87
2021/11/15 03:24:15;;;;;;;38.15;18.55;;;;;;;20.33;29.04;99280.69;5066077;28;20114;-87
2021/11/15 03:26:41;;;;;;;48.45;22.50;;;;;;;19.84;29.45;99286.38;5065460;28;20039;-87
2021/11/15 03:29:08;;;;;;;43.70;20.58;;;;;;;19.57;29.98;99282.00;5067102;28;20033;-87
2021/11/15 03:31:35;;;;;;;34.85;17.63;;;;;;;21.13;27.68;99280.00;5064693;28;20037;-87
2021/11/15 03:34:10;;;;;;;38.45;17.83;;;;;;;21.07;27.66;99273.16;5068197;28;20075;-87
2021/11/15 03:36:39;;;;;;;32.10;15.38;;;;;;;21.48;26.96;99279.50;5070890;28;20032;-87
2021/11/15 03:39:07;;;;;;;42.72;20.52;;;;;;;20.63;27.93;99276.66;5062203;28;20121;-86
2021/11/15 03:41:36;;;;;;;34.05;18.80;;;;;;;20.74;27.90;99276.81;5066777;28;20036;-87
2021/11/15 03:44:04;;;;;;;42.08;20.25;;;;;;;19.66;29.26;99282.53;5061800;28;20474;-86
2021/11/15 03:46:32;;;;;;;44.05;21.77;;;;;;;19.38;30.30;99279.31;5072610;28;20028;-87
2021/11/15 03:48:58;;;;;;;41.08;18.80;;;;;;;18.59;31.35;99284.66;5072896;28;20086;-87
2021/11/15 03:51:24;;;;;;;38.53;18.58;;;;;;;18.57;31.52;99282.25;5066523;28;20029;-87
2021/11/15 03:53:51;;;;;;;46.75;21.98;;;;;;;18.27;32.14;99277.63;5063804;28;20040;-87
2021/11/15 03:56:23;;;;;;;32.85;17.27;;;;;;;19.67;29.91;99282.19;5065614;28;20020;-86
2021/11/15 03:58:49;;;;;;;39.10;19.65;;;;;;;19.42;30.19;99277.41;5061155;28;20028;-87
2021/11/15 04:01:16;;;;;;;36.10;18.30;;;;;;;19.68;29.80;99280.19;5065513;28;20039;-87
2021/11/15 04:03:45;;;;;;;42.67;20.85;;;;;;;18.56;31.72;99280.63;5066404;28;20029;-87
2021/11/15 04:06:28;;;;;;;41.55;20.30;;;;;;;19.39;30.23;99278.94;5064816;28;20028;-87
2021/11/15 04:08:56;;;;;;;36.17;19.35;;;;;;;19.98;29.27;99276.25;5066698;28;20044;-87
2021/11/15 04:11:25;;;;;;;33.08;14.77;;;;;;;20.59;28.61;99273.03;5069090;28;20040;-87
2021/11/15 04:13:55;;;;;;;38.58;18.85;;;;;;;19.48;29.71;99276.72;5068437;28;20055;-86
2021/11/15 04:16:22;;;;;;;35.47;17.30;;;;;;;19.14;30.34;99275.72;5069294;28;20413;-86
2021/11/15 04:19:00;;;;;;;37.70;19.40;;;;;;;19.82;29.54;99285.97;5065252;28;20033;-87
2021/11/15 04:21:30;;;;;;;38.85;18.27;;;;;;;20.48;28.10;99274.91;5065228;28;20059;-87
2021/11/15 04:23:56;;;;;;;36.33;18.08;;;;;;;19.80;29.43;99277.97;5067938;28;20139;-86
2021/11/15 04:26:22;;;;;;;36.80;17.08;;;;;;;20.09;29.01;99275.59;5067689;28;20086;-87
2021/11/15 04:28:48;;;;;;;37.25;18.60;;;;;;;19.18;30.02;99281.34;5067595;28;20111;-86
2021/11/15 04:31:15;;;;;;;38.60;18.83;;;;;;;19.62;29.75;99274.13;5061882;28;20032;-86
2021/11/15 04:33:41;;;;;;;35.45;17.33;;;;;;;20.98;27.69;99258.69;5067000;28;20028;-86
2021/11/15 04:36:07;;;;;;;33.55;16.08;;;;;;;20.31;28.48;99266.31;5064899;28;20033;-86
2021/11/15 04:38:34;;;;;;;37.28;17.48;;;;;;;18.04;31.74;99269.19;5057766;28;20148;-88
2021/11/15 04:41:00;;;;;;;34.33;16.55;;;;;;;17.73;32.99;99272.09;5064462;28;20060;-87
2021/11/15 04:43:26;;;;;;;36.90;17.08;;;;;;;18.83;30.86;99275.16;5066032;28;20086;-86
2021/11/15 04:45:52;;;;;;;35.33;17.83;;;;;;;18.54;31.38;99266.28;5074207;28;20116;-86
2021/11/15 04:48:18;;;;;;;31.77;16.20;;;;;;;20.24;28.98;99269.03;5061653;28;20044;-86
2021/11/15 04:50:44;;;;;;;29.88;14.73;;;;;;;20.59;28.12;99261.06;5069946;28;20387;-86
2021/11/15 04:53:11;;;;;;;37.33;16.90;;;;;;;18.48;31.03;99278.88;5064887;28;20093;-86
2021/11/15 04:55:38;;;;;;;35.40;17.08;;;;;;;17.93;32.27;99270.94;5058124;28;20052;-87
2021/11/15 04:58:05;;;;;;;33.08;15.77;;;;;;;18.39;31.73;99280.25;5064288;28;20103;-86
2021/11/15 05:00:34;;;;;;;30.38;15.23;;;;;;;18.57;31.56;99282.25;5048532;28;20025;-86
2021/11/15 05:03:00;;;;;;;31.33;16.40;;;;;;;19.69;29.63;99277.03;5068228;28;20032;-87
2021/11/15 05:05:26;;;;;;;34.30;16.40;;;;;;;19.76;29.17;99279.94;5064277;28;20518;-87
2021/11/15 05:07:53;;;;;;;30.13;16.15;;;;;;;20.58;28.21;99273.44;5068935;28;20493;-86
2021/11/15 05:10:21;;;;;;;25.58;12.68;;;;;;;21.90;26.39;99272.22;5069876;28;20029;-87
2021/11/15 05:12:47;;;;;;;26.05;13.35;;;;;;;22.12;25.78;99261.97;5052399;28;20038;-87
2021/11/15 05:15:18;;;;;;;30.83;15.20;;;;;;;22.17;25.37;99266.38;5065999;28;20159;-86
2021/11/15 05:17:44;;;;;;;30.80;16.35;;;;;;;19.46;29.52;99284.63;5061142;28;20029;-86
2021/11/15 05:20:12;;;;;;;33.78;16.52;;;;;;;19.54;29.71;99280.78;5065130;28;20060;-86
2021/11/15 05:22:39;;;;;;;31.35;14.15;;;;;;;20.29;28.63;99271.47;5069146;28;20040;-87
2021/11/15 05:25:06;;;;;;;32.90;16.58;;;;;;;20.38;28.13;99263.63;5066063;28;20035;-87
2021/11/15 05:27:33;;;;;;;29.60;14.63;;;;;;;21.51;26.53;99268.34;5060788;28;20100;-86
2021/11/15 05:29:59;;;;;;;30.67;15.07;;;;;;;21.65;26.13;99268.44;5068810;28;20029;-86
2021/11/15 05:32:26;;;;;;;31.20;13.98;;;;;;;22.40;25.28;99267.69;5067305;28;20079;-84
2021/11/15 05:34:52;;;;;;;35.22;17.33;;;;;;;21.28;26.86;99265.75;5067605;28;20440;-87
2021/11/15 05:37:18;;;;;;;25.13;12.65;;;;;;;22.19;25.61;99261.19;5085557;28;20452;-87
2021/11/15 05:39:44;;;;;;;31.35;15.93;;;;;;;20.87;27.15;99269.75;5069304;28;20029;-87
2021/11/15 05:42:11;;;;;;;31.85;16.60;;;;;;;19.78;28.79;99279.53;5067627;28;20391;-84
2021/11/15 05:44:37;;;;;;;33.38;16.88;;;;;;;20.46;28.12;99273.69;5063396;28;20072;-83
2021/11/15 05:47:04;;;;;;;33.88;16.05;;;;;;;19.69;29.36;99281.78;5069823;28;20033;-84
2021/11/15 05:49:30;;;;;;;27.63;13.65;;;;;;;20.46;28.34;99276.47;5067582;28;20041;-84
2021/11/15 05:51:56;;;;;;;29.85;14.50;;;;;;;21.33;26.81;99268.19;5054726;28;20142;-84
2021/11/15 05:54:22;;;;;;;30.52;14.38;;;;;;;20.72;27.50;99276.38;5060918;28;20037;-84
2021/11/15 05:56:48;;;;;;;31.20;15.55;;;;;;;20.57;27.74;99283.78;5068898;28;20029;-84
2021/11/15 05:59:15;;;;;;;33.08;16.70;;;;;;;19.56;29.12;99288.75;5066955;28;20056;-84
2021/11/15 06:01:43;;;;;;;36.58;19.23;;;;;;;19.67;29.62;99287.75;5063399;28;20115;-84
2021/11/15 06:04:10;;;;;;;36.85;20.20;;;;;;;18.90;30.87;99294.78;5066930;28;20445;-86
2021/11/15 06:06:36;;;;;;;34.50;17.45;;;;;;;19.03;30.15;99291.44;5048848;28;20024;-85
2021/11/15 06:09:02;;;;;;;78.68;41.22;;;;;;;19.07;30.50;99280.34;5069979;28;20067;-85
2021/11/15 06:11:28;;;;;;;36.25;18.13;;;;;;;18.28;31.25;99280.03;5060808;28;20029;-84
2021/11/15 06:13:54;;;;;;;37.38;17.88;;;;;;;17.97;32.10;99294.03;5062265;28;20036;-85
2021/11/15 06:16:20;;;;;;;37.53;21.00;;;;;;;19.05;30.80;99300.22;5067562;28;20036;-84
2021/11/15 06:18:47;;;;;;;41.70;21.48;;;;;;;19.45;29.79;99294.16;5050498;28;20394;-84
2021/11/15 06:21:13;;;;;;;30.92;14.88;;;;;;;18.67;31.10;99296.72;5066403;28;20036;-84
2021/11/15 06:23:39;;;;;;;29.65;15.38;;;;;;;19.54;29.80;99299.47;5064748;28;20098;-83
2021/11/15 06:26:05;;;;;;;26.38;14.07;;;;;;;19.48;30.11;99298.19;5067238;28;20033;-82
2021/11/15 06:28:31;;;;;;;34.45;16.80;;;;;;;18.55;31.22;99300.47;5063693;28;20021;-85
2021/11/15 06:30:58;;;;;;;27.75;14.85;;;;;;;19.11;30.45;99300.72;5057602;28;20088;-84
2021/11/15 06:33:24;;;;;;;28.70;14.43;;;;;;;19.68;30.09;99297.69;5068727;28;20028;-84
2021/11/15 06:35:50;;;;;;;24.52;13.43;;;;;;;21.32;27.25;99294.53;5073979;28;20041;-84
2021/11/15 06:38:17;;;;;;;27.25;14.50;;;;;;;21.07;27.44;99295.50;5061650;28;20446;-84
2021/11/15 06:40:43;;;;;;;33.70;16.13;;;;;;;19.92;28.91;99305.63;5069759;28;20068;-84
2021/11/15 06:43:09;;;;;;;24.80;13.65;;;;;;;20.68;28.17;99290.28;5071941;28;20041;-84
2021/11/15 06:45:35;;;;;;;24.10;12.32;;;;;;;22.60;25.58;99296.97;5052281;28;20123;-84
2021/11/15 06:48:01;;;;;;;29.92;16.73;;;;;;;22.91;24.78;99306.66;5070985;28;20051;-84
2021/11/15 06:50:27;;;;;;;26.30;12.95;;;;;;;22.85;25.18;99293.44;5076526;28;20032;-84
2021/11/15 06:52:54;;;;;;;22.55;12.60;;;;;;;22.38;25.51;99305.66;5072690;28;20508;-84
2021/11/15 06:55:23;;;;;;;25.13;13.15;;;;;;;21.47;27.02;99305.84;5074293;28;20063;-84
2021/11/15 06:57:49;;;;;;;29.63;15.07;;;;;;;19.97;28.82;99315.66;5071158;28;20037;-84
2021/11/15 07:00:27;;;;;;;26.40;13.63;;;;;;;19.00;30.89;99320.00;5055873;28;20021;-84
2021/11/15 07:02:55;;;;;;;23.85;12.50;;;;;;;20.04;29.36;99309.38;5054812;28;20074;-84
2021/11/15 07:05:24;;;;;;;25.85;13.43;;;;;;;20.96;28.15;99305.72;5068749;28;20036;-84
2021/11/15 07:07:50;;;;;;;24.00;11.73;;;;;;;22.68;25.48;99300.59;5066729;28;20116;-85
2021/11/15 07:10:17;;;;;;;30.52;15.60;;;;;;;19.90;29.03;99315.56;5073666;28;20397;-84
2021/11/15 07:12:44;;;;;;;29.60;15.90;;;;;;;18.42;31.38;99313.69;5073732;28;20032;-84
2021/11/15 07:15:12;;;;;;;23.90;11.88;;;;;;;17.66;33.28;99305.25;5073098;28;20043;-84
2021/11/15 07:17:38;;;;;;;29.63;14.85;;;;;;;17.23;34.30;99308.94;5074020;28;20504;-84
2021/11/15 07:20:05;;;;;;;25.42;13.93;;;;;;;16.92;34.79;99312.47;5069183;28;20028;-84
2021/11/15 07:22:32;;;;;;;38.72;19.83;;;;;;;17.90;33.66;99305.81;5073232;28;20521;-84
2021/11/15 07:24:59;;;;;;;28.52;14.88;;;;;;;18.38;32.38;99318.38;5073621;28;20539;-85
2021/11/15 07:27:25;;;;;;;33.92;16.10;;;;;;;18.17;32.48;99315.13;5071694;28;20025;-84
2021/11/15 07:29:51;;;;;;;31.90;14.95;;;;;;;18.45;32.14;99312.16;5072938;28;20036;-84
2021/11/15 07:32:18;;;;;;;27.85;13.52;;;;;;;18.75;31.66;99315.13;5073110;28;20048;-85
2021/11/15 07:34:44;;;;;;;30.95;15.30;;;;;;;18.35;32.55;99316.31;5078711;28;20028;-85
2021/11/15 07:37:10;;;;;;;27.83;14.75;;;;;;;17.55;33.78;99318.09;5093666;28;20046;-85
2021/11/15 07:39:44;;;;;;;32.60;16.85;;;;;;;16.45;35.58;99319.88;5085854;28;20048;-84
2021/11/15 07:42:12;;;;;;;29.80;15.95;;;;;;;17.69;33.52;99318.41;5067517;28;20067;-84
2021/11/15 07:44:39;;;;;;;30.17;15.52;;;;;;;16.92;35.01;99317.25;5066750;28;20557;-84
2021/11/15 07:47:06;;;;;;;40.75;19.33;;;;;;;15.16;38.38;99329.28;5073142;28;20032;-84
2021/11/15 07:49:32;;;;;;;35.00;17.73;;;;;;;15.48;38.17;99325.63;5073234;28;20078;-84
2021/11/15 07:52:00;;;;;;;33.83;18.15;;;;;;;16.28;36.24;99328.47;5067588;28;20036;-84
2021/11/15 07:54:26;;;;;;;35.25;16.98;;;;;;;16.24;36.04;99322.81;5073172;28;20037;-84
2021/11/15 07:56:52;;;;;;;33.95;18.05;;;;;;;15.95;36.90;99316.78;5073151;28;20036;-84
2021/11/15 07:59:18;;;;;;;33.83;17.98;;;;;;;17.23;35.29;99306.97;5067479;28;20036;-84
2021/11/15 08:01:44;;;;;;;35.67;16.40;;;;;;;17.73;33.66;99322.06;5052838;28;20065;-84
2021/11/15 08:04:10;;;;;;;35.22;17.55;;;;;;;16.32;35.73;99315.53;5061596;28;20033;-84
2021/11/15 08:06:36;;;;;;;46.30;16.77;;;;;;;16.92;35.09;99329.13;5054858;28;20032;-84
2021/11/15 08:09:03;;;;;;;30.83;14.45;;;;;;;18.83;31.91;99312.16;5073499;28;20039;-84
2021/11/15 08:11:32;;;;;;;32.60;16.38;;;;;;;18.21;32.46;99318.78;5072366;28;20083;-84
2021/11/15 08:13:58;;;;;;;33.78;15.57;;;;;;;18.09;32.94;99332.81;5069946;28;20088;-85
2021/11/15 08:16:24;;;;;;;32.88;15.88;;;;;;;16.78;35.44;99323.19;5068124;28;20051;-84
2021/11/15 08:18:50;;;;;;;33.10;17.92;;;;;;;17.21;34.62;99325.13;5069637;28;20031;-84
2021/11/15 08:21:20;;;;;;;33.53;17.55;;;;;;;17.08;34.92;99326.38;5072905;28;20039;-84
2021/11/15 08:23:48;;;;;;;34.70;18.65;;;;;;;17.98;33.05;99329.00;5053729;28;20041;-85
2021/11/15 08:26:34;;;;;;;31.67;16.88;;;;;;;16.92;34.83;99331.13;5053626;28;20032;-84
2021/11/15 08:29:06;;;;;;;61.20;33.00;;;;;;;17.00;34.78;99322.63;5041904;28;20048;-84
2021/11/15 08:31:33;;;;;;;39.03;19.33;;;;;;;16.78;35.52;99330.72;5051395;28;20033;-84
2021/11/15 08:34:00;;;;;;;36.45;18.75;;;;;;;16.52;36.20;99331.97;5056025;28;20029;-84
2021/11/15 08:36:27;;;;;;;36.10;19.13;;;;;;;17.10;35.14;99324.88;5072839;28;20398;-84
2021/11/15 08:39:09;;;;;;;40.90;21.52;;;;;;;17.23;34.86;99328.34;5061118;28;20036;-84
2021/11/15 08:41:38;;;;;;;35.70;17.42;;;;;;;16.38;36.37;99333.53;5066344;28;20037;-85
2021/11/15 08:44:08;;;;;;;31.15;16.45;;;;;;;17.18;34.84;99323.88;5062647;28;20028;-84
2021/11/15 08:46:35;;;;;;;39.63;20.75;;;;;;;16.54;35.70;99335.25;5043249;28;20495;-84
2021/11/15 08:49:08;;;;;;;40.80;20.55;;;;;;;16.88;35.49;99335.75;5047802;28;20107;-85
2021/11/15 08:51:36;;;;;;;36.83;18.05;;;;;;;17.47;34.91;99346.78;5053380;28;20033;-84
2021/11/15 08:54:03;;;;;;;36.25;18.55;;;;;;;17.09;35.13;99342.66;5055662;28;20064;-84
2021/11/15 08:56:30;;;;;;;40.72;18.27;;;;;;;17.39;34.60;99345.00;5054320;28;20036;-84
2021/11/15 08:58:57;;;;;;;37.03;19.45;;;;;;;16.69;35.91;99347.50;5036613;28;20029;-84
2021/11/15 09:01:25;;;;;;;35.55;18.52;;;;;;;17.68;33.99;99339.84;5056477;28;20079;-85
2021/11/15 09:03:53;;;;;;;32.45;17.52;;;;;;;18.08;33.65;99336.78;5056016;28;20025;-85
2021/11/15 09:06:20;;;;;;;41.28;21.90;;;;;;;18.32;32.99;99332.94;5056153;28;20529;-85
2021/11/15 09:08:47;;;;;;;33.50;17.70;;;;;;;18.63;31.97;99341.13;5049772;28;20030;-84
2021/11/15 09:11:14;;;;;;;35.72;17.65;;;;;;;19.15;31.61;99340.56;5049793;28;20453;-84
2021/11/15 09:13:42;;;;;;;42.25;22.60;;;;;;;18.92;31.61;99345.28;5055540;28;20394;-84
2021/11/15 09:16:09;;;;;;;40.63;19.67;;;;;;;18.97;31.03;99333.88;5055299;28;20044;-85
2021/11/15 09:18:36;;;;;;;40.35;18.25;;;;;;;19.14;31.08;99338.94;5055991;28;20116;-85
2021/11/15 09:21:08;;;;;;;33.28;16.13;;;;;;;18.40;32.31;99327.16;5056110;28;20033;-85
2021/11/15 09:23:36;;;;;;;35.40;17.42;;;;;;;17.58;33.79;99334.81;5053221;28;20048;-85
2021/11/15 09:26:03;;;;;;;33.08;16.13;;;;;;;18.26;33.01;99326.84;5037912;28;20037;-85
2021/11/15 09:28:29;;;;;;;34.17;16.45;;;;;;;18.23;32.94;99333.13;5056909;28;20366;-85
2021/11/15 09:30:55;;;;;;;36.28;17.75;;;;;;;17.84;33.61;99332.28;5069754;28;20025;-85
2021/11/15 09:33:21;;;;;;;40.80;20.48;;;;;;;16.16;36.92;99343.19;5055992;28;20033;-84
2021/11/15 09:35:50;;;;;;;39.88;19.15;;;;;;;16.44;36.49;99332.13;5055959;28;20041;-84
2021/11/15 09:38:18;;;;;;;43.97;20.73;;;;;;;16.18;36.77;99340.03;5050355;28;20038;-85
2021/11/15 09:40:47;;;;;;;45.45;21.50;;;;;;;15.71;37.69;99329.53;5035498;28;20088;-84
2021/11/15 09:43:15;;;;;;;42.95;19.70;;;;;;;16.99;35.64;99334.09;5048574;28;20044;-85
2021/11/15 09:45:41;;;;;;;39.00;19.55;;;;;;;18.10;33.44;99333.63;5055786;28;20053;-85
2021/11/15 09:48:09;;;;;;;42.05;19.40;;;;;;;16.90;35.35;99334.22;5046187;28;20104;-84
2021/11/15 09:50:37;;;;;;;38.80;17.55;;;;;;;18.68;32.62;99338.06;5040972;28;20037;-85
2021/11/15 09:53:05;;;;;;;36.03;17.17;;;;;;;19.08;31.53;99334.84;5052816;28;20029;-85
2021/11/15 09:55:32;;;;;;;36.55;17.13;;;;;;;18.40;32.27;99327.16;5055638;28;20046;-85
2021/11/15 09:57:59;;;;;;;33.08;16.02;;;;;;;18.44;32.85;99316.09;5044837;28;20033;-85
2021/11/15 10:00:27;;;;;;;30.30;16.70;;;;;;;19.07;31.50;99319.31;5037551;28;20476;-85
2021/11/15 10:02:56;;;;;;;34.95;17.15;;;;;;;19.49;30.82;99327.63;5043844;28;20399;-85
2021/11/15 10:05:22;;;;;;;33.92;16.40;;;;;;;21.53;27.80;99318.25;5049871;28;20083;-85
2021/11/15 10:07:52;;;;;;;35.80;18.17;;;;;;;20.10;29.57;99327.38;5055482;28;20029;-85
2021/11/15 10:10:39;;;;;;;31.00;15.80;;;;;;;21.59;27.85;99314.72;5054880;28;20461;-85
2021/11/15 10:13:19;;;;;;;24.00;13.18;;;;;;;21.85;27.24;99316.53;5060871;28;20034;-85
2021/11/15 10:16:21;;;;;;;27.10;13.88;;;;;;;20.65;29.12;99315.38;5074928;28;20051;-84
2021/11/15 10:18:57;;;;;;;37.20;17.85;;;;;;;19.96;29.69;99319.59;5048695;28;20057;-85
2021/11/15 10:21:33;;;;;;;27.10;14.48;;;;;;;21.47;27.59;99309.41;5033638;28;20029;-85
2021/11/15 10:24:22;;;;;;;32.58;16.60;;;;;;;18.93;31.28;99317.09;5051108;28;20033;-84
2021/11/15 10:26:56;;;;;;;31.73;16.90;;;;;;;20.75;28.68;99317.47;5028067;28;20049;-85
2021/11/15 10:29:35;;;;;;;29.15;15.50;;;;;;;21.40;26.90;99306.56;5036940;28;20025;-85
2021/11/15 10:32:16;;;;;;;29.38;16.00;;;;;;;19.96;30.02;99317.63;5053407;28;20025;-84
2021/11/15 10:34:53;;;;;;;28.92;14.02;;;;;;;20.52;29.09;99314.81;5034594;28;20045;-84
2021/11/15 10:37:30;;;;;;;35.00;15.65;;;;;;;21.41;27.60;99310.16;5034966;28;20040;-85
2021/11/15 10:40:11;;;;;;;33.10;16.02;;;;;;;19.56;30.29;99317.41;5033318;28;20037;-85
2021/11/15 10:42:46;;;;;;;35.28;16.35;;;;;;;18.03;33.30;99317.59;5072570;28;20115;-84
2021/11/15 10:45:28;;;;;;;30.75;15.10;;;;;;;18.62;32.74;99317.28;5054594;28;20433;-84
2021/11/15 10:48:06;;;;;;;38.70;21.00;;;;;;;17.83;33.66;99313.16;5054289;28;20028;-84
2021/11/15 10:50:45;;;;;;;34.40;17.17;;;;;;;17.28;35.01;99323.34;5054005;28;20033;-84
2021/11/15 10:53:19;;;;;;;38.85;17.88;;;;;;;18.00;33.85;99318.31;5054417;28;20481;-84
2021/11/15 10:56:06;;;;;;;34.28;16.88;;;;;;;19.14;31.88;99325.00;5048865;28;20040;-84
2021/11/15 10:58:42;;;;;;;43.08;20.10;;;;;;;18.10;33.20;99305.84;5048095;28;20098;-84
2021/11/15 11:01:08;;;;;;;39.92;19.42;;;;;;;17.75;34.40;99330.84;5050118;28;20086;-84
2021/11/15 11:03:35;;;;;;;33.60;17.60;;;;;;;20.15;30.42;99327.84;5049628;28;20091;-84
2021/11/15 11:06:14;;;;;;;32.40;17.13;;;;;;;19.41;31.43;99325.91;5052038;28;20104;-84
2021/11/15 11:08:42;;;;;;;49.40;21.33;;;;;;;18.83;31.81;99328.84;5047938;28;20041;-84
2021/11/15 11:11:12;;;;;;;34.30;16.25;;;;;;;19.21;32.05;99328.72;5049516;28;20033;-84
2021/11/15 11:13:59;;;;;;;36.10;16.83;;;;;;;21.14;28.66;99321.50;5047335;28;20061;-84
2021/11/15 11:16:49;;;;;;;34.58;15.18;;;;;;;21.15;28.33;99317.53;5046246;28;20126;-84
2021/11/15 11:22:12;;;;;;;37.38;16.42;;;;;;;20.77;28.86;99303.94;5047658;28;20064;-84
2021/11/15 11:24:47;;;;;;;42.15;18.42;;;;;;;19.40;31.10;99316.75;5064114;28;20029;-84